createdAt,value
2018-06-19T00:01:40.001Z,15.80
2018-06-19T00:04:12.373Z,15.80
2018-06-19T00:06:40.547Z,15.70
2018-06-19T00:09:10.340Z,15.70
2018-06-19T00:11:40.657Z,15.70
2018-06-19T00:16:41.355Z,15.70
2018-06-19T00:19:12.811Z,15.70
2018-06-19T00:21:45.846Z,15.70
2018-06-19T00:24:14.288Z,15.70
2018-06-19T00:26:42.452Z,15.60
2018-06-19T00:29:11.135Z,15.60
2018-06-19T00:31:39.371Z,15.50
2018-06-19T00:34:07.600Z,15.50
2018-06-19T00:36:36.021Z,15.40
2018-06-19T00:39:08.692Z,15.30
2018-06-19T00:41:37.256Z,15.30
2018-06-19T00:44:08.679Z,15.30
2018-06-19T00:46:39.643Z,15.20
2018-06-19T00:49:12.103Z,15.20
2018-06-19T00:51:41.829Z,15.20
2018-06-19T00:54:10.024Z,15.10
2018-06-19T00:56:54.526Z,15.20
2018-06-19T00:59:22.849Z,15.20
2018-06-19T01:01:51.421Z,15.10
2018-06-19T01:04:23.743Z,15.10
2018-06-19T01:06:51.921Z,15.10
2018-06-19T01:11:48.524Z,15.00
2018-06-19T01:14:16.758Z,15.00
2018-06-19T01:16:45.489Z,15.00
2018-06-19T01:19:16.904Z,15.00
2018-06-19T01:21:46.028Z,14.90
2018-06-19T01:24:15.077Z,14.90
2018-06-19T01:26:43.698Z,14.90
2018-06-19T01:29:12.941Z,14.90
2018-06-19T01:31:41.604Z,14.90
2018-06-19T01:34:12.580Z,14.90
2018-06-19T01:36:42.348Z,14.90
2018-06-19T01:39:11.775Z,14.90
2018-06-19T01:44:08.679Z,14.80
2018-06-19T01:46:37.796Z,14.80
2018-06-19T01:49:14.077Z,14.80
2018-06-19T01:54:11.879Z,14.80
2018-06-19T01:56:41.041Z,14.90
2018-06-19T01:59:09.224Z,15.00
2018-06-19T02:01:38.777Z,15.10
2018-06-19T02:06:36.287Z,15.30
2018-06-19T02:09:06.886Z,15.40
2018-06-19T02:11:35.059Z,15.50
2018-06-19T02:14:03.267Z,15.50
2018-06-19T02:16:31.707Z,15.60
2018-06-19T02:18:59.895Z,15.70
2018-06-19T02:21:28.095Z,15.70
2018-06-19T02:23:56.535Z,15.70
2018-06-19T02:26:24.816Z,15.70
2018-06-19T02:33:50.917Z,15.90
2018-06-19T02:36:19.119Z,15.90
2018-06-19T02:38:48.084Z,15.90
2018-06-19T02:41:16.300Z,15.90
2018-06-19T02:43:44.508Z,15.80
2018-06-19T02:46:13.117Z,15.90
2018-06-19T02:48:42.888Z,15.90
2018-06-19T02:51:11.932Z,16.00
2018-06-19T02:53:40.111Z,16.10
2018-06-19T02:56:08.290Z,16.30
2018-06-19T02:58:38.935Z,16.40
2018-06-19T03:01:08.443Z,16.40
2018-06-19T03:03:38.395Z,16.50
2018-06-19T03:06:07.741Z,16.60
2018-06-19T03:08:36.467Z,16.60
2018-06-19T03:11:04.909Z,16.60
2018-06-19T03:13:33.090Z,16.60
2018-06-19T03:16:02.351Z,16.60
2018-06-19T03:18:30.604Z,16.60
2018-06-19T03:20:59.339Z,16.60
2018-06-19T03:23:27.807Z,16.60
2018-06-19T03:25:56.021Z,16.60
2018-06-19T03:28:24.219Z,16.70
2018-06-19T03:30:53.081Z,16.70
2018-06-19T03:33:21.976Z,16.70
2018-06-19T03:35:50.176Z,16.70
2018-06-19T03:38:18.983Z,16.70
2018-06-19T03:40:47.541Z,16.80
2018-06-19T03:43:15.747Z,16.80
2018-06-19T03:45:43.963Z,16.80
2018-06-19T03:50:45.286Z,16.90
2018-06-19T03:53:13.517Z,17.00
2018-06-19T03:55:43.020Z,17.00
2018-06-19T03:58:11.252Z,17.30
2018-06-19T04:00:39.727Z,18.00
2018-06-19T04:03:08.932Z,18.60
2018-06-19T04:05:42.041Z,19.00
2018-06-19T04:08:13.947Z,19.00
2018-06-19T04:10:42.175Z,18.80
2018-06-19T04:13:10.397Z,18.60
2018-06-19T04:15:39.351Z,18.40
2018-06-19T04:32:46.519Z,18.20
2018-06-19T04:35:14.772Z,18.20
2018-06-19T04:37:47.203Z,18.30
2018-06-19T04:40:15.519Z,18.40
2018-06-19T04:42:43.781Z,18.40
2018-06-19T04:45:11.988Z,18.50
2018-06-19T04:47:40.227Z,18.50
2018-06-19T04:50:08.423Z,18.50
2018-06-19T04:52:41.546Z,18.50
2018-06-19T04:55:09.824Z,18.60
2018-06-19T04:57:38.048Z,18.60
2018-06-19T05:00:07.194Z,18.70
2018-06-19T05:02:35.417Z,18.90
2018-06-19T05:05:03.908Z,18.90
2018-06-19T05:07:32.120Z,19.00
2018-06-19T05:10:00.403Z,19.10
2018-06-19T05:12:30.008Z,19.20
2018-06-19T05:14:58.225Z,19.40
2018-06-19T05:17:26.768Z,19.30
2018-06-19T05:19:55.089Z,19.40
2018-06-19T05:22:23.319Z,19.70
2018-06-19T05:24:51.561Z,19.70
2018-06-19T05:27:20.037Z,19.70
2018-06-19T05:29:48.760Z,19.90
2018-06-19T05:32:17.600Z,20.00
2018-06-19T05:34:47.820Z,20.10
2018-06-19T05:37:19.681Z,20.30
2018-06-19T05:39:47.884Z,20.40
2018-06-19T05:42:17.356Z,20.70
2018-06-19T05:44:46.406Z,21.30
2018-06-19T05:47:16.448Z,21.80
2018-06-19T05:49:44.675Z,22.00
2018-06-19T05:52:20.172Z,22.70
2018-06-19T05:54:51.627Z,23.80
2018-06-19T05:57:19.832Z,25.00
2018-06-19T05:59:48.464Z,25.50
2018-06-19T06:02:18.983Z,26.40
2018-06-19T06:04:47.179Z,27.40
2018-06-19T06:07:19.447Z,28.10
2018-06-19T06:09:49.551Z,28.50
2018-06-19T06:12:18.854Z,28.90
2018-06-19T06:14:47.025Z,28.60
2018-06-19T06:17:16.162Z,28.40
2018-06-19T06:19:44.499Z,28.70
2018-06-19T06:22:12.792Z,28.00
2018-06-19T06:24:45.909Z,27.70
2018-06-19T06:27:14.755Z,27.50
2018-06-19T06:29:45.040Z,26.50
2018-06-19T06:34:42.008Z,24.70
2018-06-19T06:39:51.036Z,23.70
2018-06-19T06:42:19.823Z,23.60
2018-06-19T06:44:48.616Z,23.40
2018-06-19T06:47:18.383Z,22.80
2018-06-19T06:49:47.369Z,22.00
2018-06-19T06:52:16.740Z,21.50
2018-06-19T06:57:16.802Z,21.70
2018-06-19T06:59:45.642Z,22.10
2018-06-19T07:02:14.600Z,22.70
2018-06-19T07:04:43.420Z,23.00
2018-06-19T07:07:12.287Z,22.90
2018-06-19T07:09:44.491Z,22.70
2018-06-19T07:12:14.212Z,22.90
2018-06-19T07:14:43.080Z,22.70
2018-06-19T07:17:11.285Z,22.80
2018-06-19T07:22:08.337Z,22.50
2018-06-19T07:24:41.117Z,22.50
2018-06-19T07:27:10.144Z,22.40
2018-06-19T07:29:38.984Z,22.10
2018-06-19T07:32:07.764Z,21.80
2018-06-19T07:34:36.611Z,21.90
2018-06-19T07:37:04.937Z,22.00
2018-06-19T07:39:34.500Z,22.10
2018-06-19T07:42:02.849Z,22.00
2018-06-19T07:44:31.074Z,22.20
2018-06-19T07:46:59.888Z,22.20
2018-06-19T07:49:28.864Z,22.50
2018-06-19T07:54:29.487Z,23.00
2018-06-19T07:56:57.910Z,23.10
2018-06-19T07:59:29.182Z,22.90
2018-06-19T08:01:57.379Z,22.60
2018-06-19T08:04:26.164Z,22.10
2018-06-19T08:06:55.156Z,22.00
2018-06-19T08:09:24.007Z,22.00
2018-06-19T08:11:52.640Z,22.30
2018-06-19T08:14:20.875Z,22.40
2018-06-19T08:16:49.616Z,22.60
2018-06-19T08:21:45.855Z,23.20
2018-06-19T08:24:14.428Z,23.30
2018-06-19T08:26:42.715Z,23.60
2018-06-19T08:29:10.879Z,23.90
2018-06-19T08:31:39.142Z,23.90
2018-06-19T08:34:07.423Z,24.00
2018-06-19T08:36:35.671Z,24.30
2018-06-19T08:39:06.036Z,24.50
2018-06-19T08:41:34.311Z,24.40
2018-06-19T08:44:03.558Z,24.20
2018-06-19T08:46:31.745Z,24.20
2018-06-19T08:48:59.984Z,24.20
2018-06-19T08:51:29.132Z,24.40
2018-06-19T08:53:57.327Z,24.50
2018-06-19T08:56:25.503Z,24.60
2018-06-19T08:58:54.160Z,24.70
2018-06-19T09:01:22.865Z,24.60
2018-06-19T09:03:51.064Z,24.20
2018-06-19T09:06:20.237Z,23.60
2018-06-19T09:08:49.879Z,23.30
2018-06-19T09:11:19.071Z,22.90
2018-06-19T09:13:55.157Z,22.80
2018-06-19T09:16:23.455Z,22.90
2018-06-19T09:18:51.664Z,23.10
2018-06-19T09:23:49.647Z,24.00
2018-06-19T09:26:18.223Z,23.90
2018-06-19T09:28:50.628Z,23.70
2018-06-19T09:31:19.133Z,23.80
2018-06-19T09:33:48.316Z,24.00
2018-06-19T09:36:18.092Z,23.90
2018-06-19T09:38:46.654Z,23.80
2018-06-19T09:41:18.196Z,23.80
2018-06-19T09:43:50.576Z,23.70
2018-06-19T09:46:19.420Z,23.90
2018-06-19T09:48:49.117Z,24.10
2018-06-19T09:51:18.407Z,24.40
2018-06-19T09:53:46.883Z,24.60
2018-06-19T09:56:15.936Z,24.80
2018-06-19T09:58:44.273Z,24.90
2018-06-19T10:01:12.681Z,24.70
2018-06-19T10:03:41.487Z,24.30
2018-06-19T10:06:09.763Z,24.10
2018-06-19T10:08:37.928Z,24.30
2018-06-19T10:11:06.560Z,24.50
2018-06-19T10:13:34.817Z,24.80
2018-06-19T10:18:31.140Z,25.40
2018-06-19T10:20:59.344Z,25.40
2018-06-19T10:25:55.960Z,25.60
2018-06-19T10:28:28.507Z,25.90
2018-06-19T10:30:56.709Z,25.60
2018-06-19T10:33:25.052Z,25.50
2018-06-19T10:35:53.322Z,25.90
2018-06-19T10:38:21.522Z,26.10
2018-06-19T10:40:49.860Z,26.40
2018-06-19T10:43:21.922Z,26.60
2018-06-19T10:45:50.262Z,26.50
2018-06-19T10:48:19.761Z,26.60
2018-06-19T10:50:48.045Z,27.00
2018-06-19T10:53:16.531Z,27.10
2018-06-19T10:55:45.837Z,26.90
2018-06-19T10:58:14.936Z,26.60
2018-06-19T11:00:43.451Z,25.80
2018-06-19T11:03:12.595Z,25.40
2018-06-19T11:05:42.667Z,25.40
2018-06-19T11:08:11.934Z,25.70
2018-06-19T11:10:41.181Z,26.20
2018-06-19T11:13:13.616Z,25.90
2018-06-19T11:15:42.791Z,25.90
2018-06-19T11:18:11.110Z,25.90
2018-06-19T11:23:07.615Z,25.80
2018-06-19T11:25:35.820Z,25.90
2018-06-19T11:28:07.400Z,26.20
2018-06-19T11:33:03.563Z,25.90
2018-06-19T11:35:32.479Z,26.10
2018-06-19T11:38:04.459Z,26.50
2018-06-19T11:40:32.936Z,26.90
2018-06-19T11:43:01.144Z,27.20
2018-06-19T11:45:33.445Z,27.40
2018-06-19T11:48:03.946Z,27.10
2018-06-19T11:50:33.558Z,27.10
2018-06-19T11:55:30.064Z,26.80
2018-06-19T11:58:02.279Z,26.20
2018-06-19T12:00:30.472Z,26.30
2018-06-19T12:05:27.256Z,26.70
2018-06-19T12:08:00.212Z,26.90
2018-06-19T12:12:57.370Z,26.20
2018-06-19T12:15:29.025Z,26.20
2018-06-19T12:20:25.215Z,26.60
2018-06-19T12:22:54.973Z,27.10
2018-06-19T12:25:25.183Z,27.40
2018-06-19T12:27:53.726Z,27.60
2018-06-19T12:30:26.565Z,28.00
2018-06-19T12:32:56.135Z,27.50
2018-06-19T12:35:25.076Z,27.10
2018-06-19T12:37:53.656Z,27.00
2018-06-19T12:40:22.352Z,26.70
2018-06-19T12:42:51.316Z,27.00
2018-06-19T12:45:27.614Z,27.50
2018-06-19T12:48:02.712Z,27.10
2018-06-19T12:51:50.616Z,27.00
2018-06-19T12:55:31.392Z,27.30
2018-06-19T12:58:00.243Z,27.30
2018-06-19T13:00:36.308Z,27.20
2018-06-19T13:03:15.863Z,27.20
2018-06-19T13:05:55.435Z,27.30
2018-06-19T13:08:23.636Z,27.50
2018-06-19T13:10:51.871Z,27.20
2018-06-19T13:13:31.918Z,26.90
2018-06-19T13:16:05.933Z,26.70
2018-06-19T13:18:45.496Z,26.60
2018-06-19T13:21:13.763Z,26.50
2018-06-19T13:23:42.219Z,26.40
2018-06-19T13:26:11.183Z,26.60
2018-06-19T13:29:58.528Z,26.60
2018-06-19T13:32:27.197Z,26.60
2018-06-19T13:34:55.568Z,26.70
2018-06-19T13:37:23.971Z,26.70
2018-06-19T13:41:20.342Z,26.50
2018-06-19T13:44:01.373Z,26.80
2018-06-19T13:46:33.228Z,27.30
2018-06-19T13:49:01.568Z,27.10
2018-06-19T13:51:30.593Z,26.90
2018-06-19T13:53:59.032Z,26.80
2018-06-19T14:00:06.164Z,26.50
2018-06-19T14:02:34.510Z,26.60
2018-06-19T14:05:03.207Z,26.40
2018-06-19T14:07:36.931Z,26.60
2018-06-19T14:10:16.304Z,27.30
2018-06-19T14:12:52.644Z,27.80
2018-06-19T14:17:53.628Z,28.10
2018-06-19T14:20:22.765Z,28.10
2018-06-19T14:22:50.972Z,27.80
2018-06-19T14:25:19.637Z,27.70
2018-06-19T14:27:47.967Z,27.60
2018-06-19T14:30:16.195Z,27.60
2018-06-19T14:32:44.960Z,27.70
2018-06-19T14:35:13.668Z,27.70
2018-06-19T14:37:43.423Z,27.70
2018-06-19T14:40:12.144Z,27.60
2018-06-19T14:42:40.419Z,27.80
2018-06-19T14:45:09.519Z,27.80
2018-06-19T14:47:44.855Z,27.60
2018-06-19T14:50:14.153Z,27.40
2018-06-19T14:52:42.433Z,27.40
2018-06-19T14:55:11.741Z,27.20
2018-06-19T14:57:40.280Z,27.20
2018-06-19T15:00:09.460Z,27.00
2018-06-19T15:02:37.708Z,27.00
2018-06-19T15:05:06.308Z,27.20
2018-06-19T15:07:41.676Z,27.20
2018-06-19T15:10:10.847Z,27.20
2018-06-19T15:12:39.072Z,27.30
2018-06-19T15:15:08.704Z,27.20
2018-06-19T15:17:38.156Z,27.20
2018-06-19T15:22:34.915Z,26.90
2018-06-19T15:27:31.177Z,27.00
2018-06-19T15:29:59.624Z,27.10
2018-06-19T15:32:28.088Z,27.20
2018-06-19T15:34:56.300Z,27.10
2018-06-19T15:37:24.520Z,27.00
2018-06-19T15:39:54.125Z,26.80
2018-06-19T15:42:22.439Z,26.70
2018-06-19T15:44:50.839Z,26.50
2018-06-19T15:47:23.222Z,26.30
2018-06-19T15:49:51.552Z,26.40
2018-06-19T15:52:20.164Z,26.20
2018-06-19T15:54:48.421Z,26.20
2018-06-19T15:57:17.425Z,26.20
2018-06-19T15:59:45.643Z,26.30
2018-06-19T16:04:50.196Z,26.50
2018-06-19T16:07:18.425Z,26.70
2018-06-19T16:09:46.664Z,27.00
2018-06-19T16:12:14.875Z,27.10
2018-06-19T16:14:43.089Z,27.00
2018-06-19T16:17:15.000Z,27.60
2018-06-19T16:19:43.193Z,28.50
2018-06-19T16:22:11.528Z,28.30
2018-06-19T16:24:41.336Z,27.60
2018-06-19T16:27:09.551Z,27.20
2018-06-19T16:29:38.798Z,27.00
2018-06-19T16:32:07.040Z,26.70
2018-06-19T16:34:35.692Z,26.40
2018-06-19T16:37:04.226Z,26.20
2018-06-19T16:39:32.912Z,26.20
2018-06-19T16:42:01.259Z,26.00
2018-06-19T16:44:30.417Z,25.90
2018-06-19T16:46:58.920Z,25.80
2018-06-19T16:49:30.840Z,25.60
2018-06-19T16:51:59.780Z,25.60
2018-06-19T16:54:28.282Z,25.40
2018-06-19T16:56:56.518Z,25.30
2018-06-19T16:59:25.731Z,25.30
2018-06-19T17:01:54.788Z,25.20
2018-06-19T17:04:24.008Z,25.20
2018-06-19T17:06:52.824Z,25.20
2018-06-19T17:09:21.115Z,25.00
2018-06-19T17:11:49.311Z,25.00
2018-06-19T17:14:17.596Z,24.80
2018-06-19T17:16:46.801Z,24.80
2018-06-19T17:19:14.975Z,24.80
2018-06-19T17:21:43.172Z,24.80
2018-06-19T17:24:12.676Z,24.80
2018-06-19T17:26:40.896Z,24.80
2018-06-19T17:29:09.348Z,24.80
2018-06-19T17:31:37.927Z,24.80
2018-06-19T17:34:06.667Z,24.70
2018-06-19T17:36:35.817Z,24.60
2018-06-19T17:39:06.187Z,24.60
2018-06-19T17:41:34.745Z,24.60
2018-06-19T17:44:03.087Z,24.60
2018-06-19T17:46:34.758Z,24.70
2018-06-19T17:49:03.036Z,24.80
2018-06-19T17:51:31.287Z,24.80
2018-06-19T17:53:59.460Z,24.80
2018-06-19T17:56:27.664Z,24.80
2018-06-19T18:01:23.914Z,25.10
2018-06-19T18:03:52.279Z,25.30
2018-06-19T18:06:20.873Z,25.20
2018-06-19T18:11:17.967Z,25.00
2018-06-19T18:13:46.196Z,25.20
2018-06-19T18:16:15.269Z,25.20
2018-06-19T18:18:43.556Z,25.30
2018-06-19T18:21:11.748Z,25.40
2018-06-19T18:23:40.065Z,25.10
2018-06-19T18:26:08.204Z,24.90
2018-06-19T18:28:36.491Z,24.80
2018-06-19T18:31:05.883Z,24.60
2018-06-19T18:33:34.668Z,24.40
2018-06-19T18:36:05.980Z,24.20
2018-06-19T18:38:34.392Z,24.00
2018-06-19T18:41:03.576Z,23.80
2018-06-19T18:43:32.144Z,23.80
2018-06-19T18:46:01.871Z,23.70
2018-06-19T18:48:30.591Z,23.60
2018-06-19T18:50:59.144Z,23.60
2018-06-19T18:53:27.652Z,23.60
2018-06-19T18:55:56.696Z,23.50
2018-06-19T19:00:53.407Z,23.40
2018-06-19T19:03:21.796Z,23.30
2018-06-19T19:05:54.111Z,23.20
2018-06-19T19:08:23.828Z,23.20
2018-06-19T19:10:55.266Z,23.20
2018-06-19T19:13:24.620Z,23.10
2018-06-19T19:15:58.899Z,23.10
2018-06-19T19:18:32.666Z,23.10
2018-06-19T19:21:07.005Z,23.10
2018-06-19T19:23:35.216Z,23.00
2018-06-19T19:26:03.515Z,22.90
2018-06-19T19:28:37.216Z,22.90
2018-06-19T19:31:05.437Z,22.90
2018-06-19T19:33:34.389Z,22.90
2018-06-19T19:36:05.570Z,22.80
2018-06-19T19:41:08.120Z,22.80
2018-06-19T19:43:38.448Z,22.70
2018-06-19T19:46:06.725Z,22.70
2018-06-19T19:48:40.524Z,22.70
2018-06-19T19:51:13.700Z,22.60
2018-06-19T19:53:42.617Z,22.50
2018-06-19T19:58:19.468Z,22.40
2018-06-19T20:00:48.610Z,22.50
2018-06-19T20:03:16.920Z,22.40
2018-06-19T20:05:45.133Z,22.30
2018-06-19T20:08:18.016Z,22.20
2018-06-19T20:10:46.309Z,22.10
2018-06-19T20:13:14.624Z,22.20
2018-06-19T20:15:42.939Z,22.20
2018-06-19T20:18:11.143Z,22.30
2018-06-19T20:20:39.457Z,22.30
2018-06-19T20:25:36.580Z,22.10
2018-06-19T20:28:04.900Z,22.20
2018-06-19T20:30:33.479Z,22.20
2018-06-19T20:33:02.528Z,22.20
2018-06-19T20:35:30.718Z,22.10
2018-06-19T20:37:58.922Z,22.00
2018-06-19T20:40:28.128Z,21.90
2018-06-19T20:42:56.352Z,21.80
2018-06-19T20:45:24.643Z,21.70
2018-06-19T20:47:53.491Z,21.70
2018-06-19T20:52:49.840Z,21.40
2018-06-19T20:55:18.033Z,21.30
2018-06-19T20:57:46.220Z,21.20
2018-06-19T21:00:14.433Z,21.10
2018-06-19T21:02:42.778Z,21.00
2018-06-19T21:05:11.602Z,20.90
2018-06-19T21:07:39.872Z,20.90
2018-06-19T21:10:08.294Z,20.80
2018-06-19T21:15:06.833Z,20.70
2018-06-19T21:17:35.328Z,20.60
2018-06-19T21:20:04.143Z,20.50
2018-06-19T21:22:41.014Z,20.40
2018-06-19T21:25:09.327Z,20.40
2018-06-19T21:30:06.336Z,20.20
2018-06-19T21:32:34.555Z,20.10
2018-06-19T21:35:03.723Z,20.00
2018-06-19T21:37:31.926Z,20.00
2018-06-19T21:40:00.428Z,19.90
2018-06-19T21:42:29.744Z,19.80
2018-06-19T21:44:58.672Z,19.70
2018-06-19T21:47:26.948Z,19.70
2018-06-19T21:49:55.174Z,19.60
2018-06-19T21:52:23.772Z,19.60
2018-06-19T21:54:52.047Z,19.50
2018-06-19T21:59:48.556Z,19.40
2018-06-19T22:02:33.196Z,19.30
2018-06-19T22:05:03.671Z,19.20
2018-06-19T22:10:04.695Z,19.20
2018-06-19T22:12:32.895Z,19.10
2018-06-19T22:15:02.464Z,19.10
2018-06-19T22:17:30.696Z,19.00
2018-06-19T22:19:58.911Z,19.00
2018-06-19T22:22:27.099Z,18.90
2018-06-19T22:24:55.393Z,18.90
2018-06-19T22:27:23.701Z,18.80
2018-06-19T22:32:19.908Z,18.80
2018-06-19T22:34:48.144Z,18.70
2018-06-19T22:37:16.388Z,18.70
2018-06-19T22:39:45.175Z,18.60
2018-06-19T22:42:16.424Z,18.60
2018-06-19T22:44:44.675Z,18.50
2018-06-19T22:47:13.063Z,18.50
2018-06-19T22:49:41.282Z,18.50
2018-06-19T22:52:10.116Z,18.40
2018-06-19T22:54:38.318Z,18.40
2018-06-19T22:57:06.651Z,18.30
2018-06-19T22:59:34.863Z,18.30
2018-06-19T23:02:03.076Z,18.20
2018-06-19T23:04:31.624Z,18.20
2018-06-19T23:07:00.716Z,18.20
2018-06-19T23:09:28.895Z,18.10
2018-06-19T23:12:00.447Z,18.10
2018-06-19T23:14:28.655Z,18.10
2018-06-19T23:16:57.599Z,18.10
2018-06-19T23:21:54.030Z,17.90
2018-06-19T23:24:22.227Z,17.90
2018-06-19T23:26:50.913Z,17.80
2018-06-19T23:29:19.968Z,17.80
2018-06-19T23:31:48.180Z,17.70
2018-06-19T23:34:16.367Z,17.70
2018-06-19T23:36:44.623Z,17.60
2018-06-19T23:39:12.851Z,17.60
2018-06-19T23:41:44.395Z,17.60
2018-06-19T23:44:12.594Z,17.60
2018-06-19T23:46:40.808Z,17.50
2018-06-19T23:49:08.983Z,17.50
2018-06-19T23:51:37.216Z,17.50
2018-06-19T23:56:36.352Z,17.40
2018-06-19T23:59:04.660Z,17.40
